createdAt,value
2017-11-29T00:00:45.480Z,64.80
2017-11-29T00:03:13.023Z,64.50
2017-11-29T00:05:41.313Z,64.60
2017-11-29T00:08:09.599Z,64.10
2017-11-29T00:10:37.953Z,63.80
2017-11-29T00:13:07.001Z,64.70
2017-11-29T00:15:35.560Z,64.20
2017-11-29T00:18:03.077Z,64.40
2017-11-29T00:20:31.378Z,64.30
2017-11-29T00:23:00.446Z,64.80
2017-11-29T00:25:27.998Z,63.90
2017-11-29T00:27:56.295Z,64.00
2017-11-29T00:30:24.712Z,63.90
2017-11-29T00:32:53.004Z,63.60
2017-11-29T00:35:21.301Z,63.30
2017-11-29T00:37:49.733Z,63.40
2017-11-29T00:40:18.072Z,63.50
2017-11-29T00:42:47.998Z,63.50
2017-11-29T00:45:16.328Z,63.60
2017-11-29T00:47:44.615Z,63.50
2017-11-29T00:50:12.905Z,63.70
2017-11-29T00:52:41.183Z,63.40
2017-11-29T00:55:10.066Z,63.70
2017-11-29T00:57:37.982Z,64.40
2017-11-29T01:00:06.297Z,64.10
2017-11-29T01:02:34.583Z,63.30
2017-11-29T01:05:02.888Z,63.40
2017-11-29T01:07:31.178Z,63.60
2017-11-29T01:09:59.476Z,63.40
2017-11-29T01:12:27.818Z,63.50
2017-11-29T01:14:56.118Z,63.50
2017-11-29T01:17:24.552Z,62.10
2017-11-29T01:19:52.887Z,62.50
2017-11-29T01:22:21.182Z,63.50
2017-11-29T01:24:49.482Z,63.80
2017-11-29T01:27:18.000Z,63.80
2017-11-29T01:29:46.342Z,64.00
2017-11-29T01:32:14.645Z,64.10
2017-11-29T01:34:42.944Z,64.10
2017-11-29T01:37:12.277Z,63.80
2017-11-29T01:39:39.806Z,66.50
2017-11-29T01:42:08.136Z,63.90
2017-11-29T01:44:36.420Z,63.60
2017-11-29T01:47:04.759Z,64.30
2017-11-29T01:49:33.887Z,63.60
2017-11-29T01:52:02.194Z,64.20
2017-11-29T01:54:29.715Z,63.30
2017-11-29T01:56:58.043Z,63.40
2017-11-29T01:59:26.338Z,63.40
2017-11-29T02:01:54.650Z,63.60
2017-11-29T02:04:23.183Z,63.60
2017-11-29T02:06:51.492Z,63.60
2017-11-29T02:09:21.287Z,64.30
2017-11-29T02:11:49.720Z,63.80
2017-11-29T02:14:17.650Z,63.70
2017-11-29T02:16:45.179Z,63.50
2017-11-29T02:19:13.105Z,63.30
2017-11-29T02:21:41.436Z,63.40
2017-11-29T02:24:10.447Z,63.30
2017-11-29T02:26:37.987Z,63.30
2017-11-29T02:29:05.510Z,63.20
2017-11-29T02:31:34.307Z,63.20
2017-11-29T02:34:01.851Z,63.20
2017-11-29T02:36:31.287Z,63.10
2017-11-29T02:38:58.829Z,63.20
2017-11-29T02:41:39.490Z,63.20
2017-11-29T02:44:07.777Z,63.70
2017-11-29T02:46:37.000Z,63.70
2017-11-29T02:49:04.515Z,63.60
2017-11-29T02:51:32.822Z,63.80
2017-11-29T02:54:01.120Z,63.50
2017-11-29T02:56:29.440Z,63.90
2017-11-29T02:58:57.983Z,63.70
2017-11-29T03:01:26.279Z,63.70
2017-11-29T03:03:54.573Z,63.50
2017-11-29T03:06:22.872Z,63.30
2017-11-29T03:08:51.406Z,63.20
2017-11-29T03:11:19.696Z,64.90
2017-11-29T03:13:48.000Z,63.50
2017-11-29T03:16:16.280Z,63.40
2017-11-29T03:18:44.631Z,63.10
2017-11-29T03:21:13.044Z,63.30
2017-11-29T03:23:41.347Z,62.90
2017-11-29T03:26:09.628Z,62.70
2017-11-29T03:28:38.003Z,62.40
2017-11-29T03:31:05.556Z,61.80
2017-11-29T03:33:33.516Z,61.80
2017-11-29T03:36:01.810Z,61.90
2017-11-29T03:38:30.124Z,62.00
2017-11-29T03:40:59.030Z,62.00
2017-11-29T03:43:26.969Z,62.20
2017-11-29T03:45:55.367Z,61.90
2017-11-29T03:48:23.679Z,61.80
2017-11-29T03:50:52.411Z,61.80
2017-11-29T03:53:20.339Z,62.20
2017-11-29T03:55:48.624Z,62.30
2017-11-29T03:58:16.942Z,62.40
2017-11-29T04:00:46.484Z,61.70
2017-11-29T04:03:15.300Z,62.10
2017-11-29T04:05:43.624Z,61.90
2017-11-29T04:08:11.936Z,61.40
2017-11-29T04:10:40.214Z,61.20
2017-11-29T04:13:09.254Z,61.70
2017-11-29T04:15:36.772Z,61.10
2017-11-29T04:18:05.398Z,61.40
2017-11-29T04:20:33.679Z,61.40
2017-11-29T04:23:01.974Z,61.10
2017-11-29T04:25:30.268Z,60.90
2017-11-29T04:27:59.417Z,60.90
2017-11-29T04:30:26.970Z,61.00
2017-11-29T04:32:55.279Z,61.40
2017-11-29T04:35:23.662Z,61.30
2017-11-29T04:37:51.967Z,61.20
2017-11-29T04:40:21.052Z,62.40
2017-11-29T04:42:49.379Z,62.10
2017-11-29T04:45:17.078Z,62.30
2017-11-29T04:47:47.563Z,62.20
2017-11-29T04:50:15.100Z,62.90
2017-11-29T04:52:43.755Z,63.30
2017-11-29T04:55:12.065Z,63.00
2017-11-29T04:57:40.357Z,62.80
2017-11-29T05:00:09.663Z,62.70
2017-11-29T05:02:38.912Z,63.10
2017-11-29T05:05:06.842Z,62.50
2017-11-29T05:07:35.120Z,62.10
2017-11-29T05:10:03.433Z,62.20
2017-11-29T05:12:31.915Z,62.20
2017-11-29T05:15:00.225Z,62.20
2017-11-29T05:17:29.274Z,63.40
2017-11-29T05:19:56.821Z,62.70
2017-11-29T05:22:25.111Z,64.00
2017-11-29T05:24:53.427Z,64.00
2017-11-29T05:27:21.783Z,63.60
2017-11-29T05:29:50.267Z,63.40
2017-11-29T05:32:18.555Z,63.00
2017-11-29T05:34:46.894Z,63.10
2017-11-29T05:37:15.182Z,62.90
2017-11-29T05:39:42.732Z,62.90
2017-11-29T05:42:10.652Z,62.90
2017-11-29T05:44:38.965Z,62.80
2017-11-29T05:47:07.297Z,63.20
2017-11-29T05:49:36.470Z,63.60
2017-11-29T05:52:04.014Z,64.50
2017-11-29T05:54:33.070Z,64.30
2017-11-29T05:57:00.658Z,64.20
2017-11-29T05:59:30.019Z,63.90
2017-11-29T06:01:58.349Z,63.90
2017-11-29T06:04:26.261Z,63.80
2017-11-29T06:06:54.938Z,63.50
2017-11-29T06:09:22.473Z,63.40
2017-11-29T06:11:50.788Z,63.40
2017-11-29T06:14:19.067Z,63.30
2017-11-29T06:16:47.383Z,63.40
2017-11-29T06:19:14.911Z,63.50
2017-11-29T06:21:42.869Z,63.30
2017-11-29T06:24:11.178Z,63.60
2017-11-29T06:26:39.519Z,64.40
2017-11-29T06:29:08.044Z,65.70
2017-11-29T06:34:05.998Z,65.20
2017-11-29T06:36:34.308Z,65.20
2017-11-29T06:39:02.605Z,64.70
2017-11-29T06:41:30.928Z,64.50
2017-11-29T06:43:59.394Z,64.40
2017-11-29T06:46:27.715Z,64.20
2017-11-29T06:48:56.814Z,64.30
2017-11-29T06:51:24.424Z,64.10
2017-11-29T06:53:52.935Z,63.70
2017-11-29T06:56:21.270Z,63.50
2017-11-29T06:58:49.563Z,63.30
2017-11-29T07:01:17.877Z,63.10
2017-11-29T07:03:46.147Z,63.00
2017-11-29T07:06:15.311Z,63.00
2017-11-29T07:08:42.893Z,62.70
2017-11-29T07:11:11.206Z,62.90
2017-11-29T07:13:40.235Z,63.20
2017-11-29T07:16:07.825Z,62.70
2017-11-29T07:18:35.344Z,62.70
2017-11-29T07:21:03.288Z,62.70
2017-11-29T07:23:31.601Z,63.00
2017-11-29T07:25:59.906Z,63.10
2017-11-29T07:28:28.230Z,63.00
2017-11-29T07:30:56.157Z,63.30
2017-11-29T07:33:25.936Z,63.40
2017-11-29T07:35:54.215Z,63.10
2017-11-29T07:38:22.527Z,63.50
2017-11-29T07:40:50.057Z,63.70
2017-11-29T07:43:18.495Z,64.80
2017-11-29T07:45:46.792Z,64.40
2017-11-29T07:48:16.029Z,64.50
2017-11-29T07:50:43.554Z,64.30
2017-11-29T07:53:11.864Z,64.00
2017-11-29T07:55:40.238Z,63.60
2017-11-29T07:58:08.543Z,63.80
2017-11-29T08:00:36.847Z,63.80
2017-11-29T08:03:05.210Z,63.30
2017-11-29T08:05:33.496Z,62.90
2017-11-29T08:08:01.808Z,61.40
2017-11-29T08:10:30.222Z,62.60
2017-11-29T08:12:59.120Z,63.10
2017-11-29T08:15:27.439Z,64.60
2017-11-29T08:17:56.313Z,63.90
2017-11-29T08:20:23.835Z,63.30
2017-11-29T08:22:54.146Z,62.90
2017-11-29T08:25:21.658Z,62.50
2017-11-29T08:27:50.012Z,62.20
2017-11-29T08:30:18.283Z,62.40
2017-11-29T08:32:57.437Z,62.70
2017-11-29T08:35:24.993Z,62.90
2017-11-29T08:37:53.311Z,63.00
2017-11-29T08:40:21.603Z,63.50
2017-11-29T08:42:49.922Z,63.60
2017-11-29T08:45:18.219Z,63.70
2017-11-29T08:47:46.526Z,63.70
2017-11-29T08:50:14.811Z,63.40
2017-11-29T08:52:43.103Z,63.00
2017-11-29T08:55:11.411Z,63.40
2017-11-29T08:57:38.935Z,62.10
2017-11-29T09:00:06.880Z,61.60
2017-11-29T09:02:35.176Z,61.40
2017-11-29T09:05:03.498Z,62.10
2017-11-29T09:07:32.717Z,61.20
2017-11-29T09:10:00.267Z,62.30
2017-11-29T09:12:28.561Z,62.90
2017-11-29T09:14:57.595Z,64.00
2017-11-29T09:17:25.116Z,63.20
2017-11-29T09:19:53.522Z,62.60
2017-11-29T09:22:21.818Z,62.00
2017-11-29T09:24:50.681Z,61.30
2017-11-29T09:27:18.589Z,62.40
2017-11-29T09:29:47.044Z,63.50
2017-11-29T09:32:15.322Z,63.80
2017-11-29T09:34:43.637Z,63.70
2017-11-29T09:37:12.629Z,63.80
2017-11-29T09:39:40.211Z,63.50
2017-11-29T09:42:08.508Z,62.00
2017-11-29T09:44:36.047Z,61.80
2017-11-29T09:47:03.960Z,60.30
2017-11-29T09:49:32.273Z,58.80
2017-11-29T09:52:00.662Z,60.10
2017-11-29T09:54:28.971Z,60.20
2017-11-29T09:56:57.265Z,60.50
2017-11-29T09:59:25.595Z,60.60
2017-11-29T10:01:53.109Z,59.80
2017-11-29T10:04:21.042Z,59.20
2017-11-29T10:06:49.329Z,58.50
2017-11-29T10:09:17.740Z,58.00
2017-11-29T10:11:46.058Z,57.30
2017-11-29T10:14:14.357Z,55.90
2017-11-29T10:16:42.843Z,55.50
2017-11-29T10:19:11.129Z,53.70
2017-11-29T10:21:39.976Z,53.80
2017-11-29T10:24:07.894Z,53.40
2017-11-29T10:26:36.199Z,53.10
2017-11-29T10:29:04.481Z,53.30
2017-11-29T10:31:32.835Z,54.30
2017-11-29T10:34:01.936Z,54.60
2017-11-29T10:36:30.892Z,54.50
2017-11-29T10:38:59.189Z,55.90
2017-11-29T10:41:27.502Z,56.20
2017-11-29T10:43:55.807Z,56.80
2017-11-29T10:46:24.238Z,57.30
2017-11-29T10:48:52.544Z,57.30
2017-11-29T10:51:20.849Z,58.00
2017-11-29T10:53:49.510Z,64.70
2017-11-29T10:56:17.809Z,61.20
2017-11-29T10:58:46.117Z,55.10
2017-11-29T11:01:14.419Z,55.70
2017-11-29T11:03:41.928Z,55.90
2017-11-29T11:06:10.431Z,56.40
2017-11-29T11:08:38.386Z,54.00
2017-11-29T11:11:05.933Z,46.90
2017-11-29T11:13:33.453Z,46.70
2017-11-29T11:16:01.484Z,47.40
2017-11-29T11:18:29.034Z,48.40
2017-11-29T11:20:56.587Z,50.20
2017-11-29T11:23:25.528Z,51.20
2017-11-29T11:25:55.038Z,52.50
2017-11-29T16:42:08.433Z,61.70
2017-11-29T16:44:35.959Z,61.90
2017-11-29T16:47:04.197Z,61.90
2017-11-29T16:49:32.173Z,61.90
2017-11-29T16:52:00.490Z,62.20
2017-11-29T16:54:28.793Z,62.20
2017-11-29T16:56:56.343Z,62.10
2017-11-29T16:59:24.254Z,62.00
2017-11-29T17:01:53.492Z,62.20
2017-11-29T17:04:21.778Z,62.50
2017-11-29T17:06:49.352Z,62.90
2017-11-29T17:09:18.123Z,62.90
2017-11-29T17:11:46.060Z,63.20
2017-11-29T17:14:14.392Z,63.10
2017-11-29T17:16:43.618Z,63.80
2017-11-29T17:19:11.159Z,63.80
2017-11-29T17:21:39.519Z,64.20
2017-11-29T17:24:07.865Z,64.10
2017-11-29T17:26:36.153Z,64.00
2017-11-29T17:29:05.452Z,63.50
2017-11-29T17:31:33.228Z,63.10
2017-11-29T17:34:01.177Z,62.90
2017-11-29T17:36:29.482Z,62.90
2017-11-29T17:38:57.795Z,62.90
2017-11-29T17:41:26.151Z,62.60
2017-11-29T17:43:55.316Z,62.40
2017-11-29T17:46:22.849Z,62.50
2017-11-29T17:48:51.170Z,62.70
2017-11-29T17:51:19.477Z,62.80
2017-11-29T17:53:48.629Z,62.60
2017-11-29T17:56:16.898Z,62.30
2017-11-29T17:58:44.447Z,62.20
2017-11-29T18:01:12.879Z,62.00
2017-11-29T18:03:42.261Z,62.10
2017-11-29T18:06:10.578Z,62.10
2017-11-29T18:08:38.124Z,62.20
2017-11-29T18:11:07.931Z,62.10
2017-11-29T18:13:35.893Z,62.30
2017-11-29T18:16:04.516Z,60.70
2017-11-29T18:18:33.436Z,62.50
2017-11-29T18:21:01.000Z,62.30
2017-11-29T18:23:29.310Z,62.10
2017-11-29T18:25:57.816Z,61.70
2017-11-29T18:28:26.124Z,61.60
2017-11-29T18:30:54.059Z,61.70
2017-11-29T18:33:22.368Z,61.50
2017-11-29T18:35:49.898Z,61.50
2017-11-29T18:38:17.844Z,61.60
2017-11-29T18:40:46.137Z,61.80
2017-11-29T18:43:15.294Z,61.30
2017-11-29T18:45:42.858Z,61.50
2017-11-29T18:48:11.936Z,61.20
2017-11-29T18:50:39.497Z,61.30
2017-11-29T18:53:11.114Z,61.40
2017-11-29T18:55:39.085Z,61.10
2017-11-29T18:58:07.424Z,61.30
2017-11-29T19:00:36.485Z,61.90
2017-11-29T19:03:04.409Z,61.10
2017-11-29T19:05:32.394Z,61.10
2017-11-29T19:08:00.930Z,61.00
2017-11-29T19:10:29.247Z,61.00
2017-11-29T19:12:58.676Z,61.20
2017-11-29T19:15:27.608Z,61.40
2017-11-29T19:17:57.132Z,61.70
2017-11-29T19:20:25.500Z,61.50
2017-11-29T19:22:53.427Z,61.90
2017-11-29T19:25:21.807Z,62.20
2017-11-29T19:27:50.108Z,62.50
2017-11-29T19:30:19.923Z,62.50
2017-11-29T19:32:48.292Z,62.90
2017-11-29T19:35:16.676Z,63.00
2017-11-29T19:37:44.998Z,63.00
2017-11-29T19:40:13.369Z,63.10
2017-11-29T19:42:43.156Z,63.20
2017-11-29T19:45:16.685Z,64.10
2017-11-29T19:47:44.637Z,62.80
2017-11-29T19:50:12.332Z,62.80
2017-11-29T19:52:41.278Z,62.70
2017-11-29T19:55:09.362Z,62.50
2017-11-29T19:57:37.288Z,62.80
2017-11-29T20:00:09.042Z,63.10
2017-11-29T20:02:37.423Z,64.00
2017-11-29T20:05:04.981Z,66.60
2017-11-29T20:07:33.268Z,63.60
2017-11-29T20:12:46.367Z,63.50
2017-11-29T20:15:14.679Z,63.50
2017-11-29T20:17:42.219Z,63.40
2017-11-29T20:20:10.576Z,63.20
2017-11-29T20:22:39.061Z,63.20
2017-11-29T20:25:08.161Z,63.40
2017-11-29T20:27:36.457Z,63.70
2017-11-29T20:30:04.807Z,63.70
2017-11-29T20:32:32.347Z,63.10
2017-11-29T20:35:01.923Z,63.10
2017-11-29T20:37:31.101Z,63.60
2017-11-29T20:39:59.407Z,64.40
2017-11-29T20:42:26.983Z,64.00
2017-11-29T20:44:55.282Z,63.70
2017-11-29T20:47:23.865Z,63.50
2017-11-29T20:49:51.828Z,63.70
2017-11-29T20:52:35.192Z,63.80
2017-11-29T20:55:03.505Z,83.80
2017-11-29T20:57:31.095Z,61.80
2017-11-29T20:59:59.973Z,54.20
2017-11-29T21:02:27.964Z,49.90
2017-11-29T21:04:55.892Z,51.60
2017-11-29T21:07:24.192Z,53.00
2017-11-29T21:09:52.503Z,54.60
2017-11-29T21:12:20.820Z,55.70
2017-11-29T21:14:49.132Z,57.20
2017-11-29T21:17:17.465Z,58.50
2017-11-29T21:19:46.187Z,59.20
2017-11-29T21:22:14.128Z,60.20
2017-11-29T21:24:42.417Z,60.70
2017-11-29T21:27:10.768Z,61.20
2017-11-29T21:29:39.229Z,61.10
2017-11-29T21:32:08.325Z,63.30
2017-11-29T21:34:36.977Z,64.30
2017-11-29T21:37:04.828Z,63.90
2017-11-29T21:39:32.752Z,63.50
2017-11-29T21:42:01.064Z,63.20
2017-11-29T21:44:29.355Z,63.60
2017-11-29T21:46:57.706Z,63.70
2017-11-29T21:49:25.987Z,63.40
2017-11-29T21:51:54.301Z,63.10
2017-11-29T21:54:22.624Z,63.50
2017-11-29T21:56:51.679Z,63.40
2017-11-29T21:59:20.080Z,63.10
2017-11-29T22:01:47.634Z,63.10
2017-11-29T22:04:16.037Z,62.70
2017-11-29T22:06:44.353Z,62.80
2017-11-29T22:09:13.502Z,62.80
2017-11-29T22:11:41.043Z,62.70
2017-11-29T22:14:09.391Z,62.70
2017-11-29T22:16:37.696Z,63.20
2017-11-29T22:19:06.004Z,62.80
2017-11-29T22:21:34.343Z,62.70
2017-11-29T22:24:02.661Z,63.00
2017-11-29T22:26:31.726Z,63.80
2017-11-29T22:29:03.763Z,63.80
2017-11-29T22:31:31.716Z,63.50
2017-11-29T22:34:00.147Z,64.20
2017-11-29T22:36:28.816Z,63.80
2017-11-29T22:38:56.819Z,63.40
2017-11-29T22:41:25.537Z,63.20
2017-11-29T22:43:53.477Z,63.20
2017-11-29T22:46:21.816Z,63.70
2017-11-29T22:48:50.169Z,64.20
2017-11-29T22:51:18.684Z,78.40
2017-11-29T22:53:46.990Z,72.80
2017-11-29T22:56:15.274Z,62.30
2017-11-29T22:58:43.584Z,56.10
2017-11-29T23:01:11.937Z,51.40
2017-11-29T23:03:42.736Z,46.90
2017-11-29T23:06:10.263Z,46.90
2017-11-29T23:08:38.595Z,49.10
2017-11-29T23:11:06.541Z,51.20
2017-11-29T23:13:34.116Z,53.30
2017-11-29T23:16:02.771Z,55.40
2017-11-29T23:18:30.327Z,56.80
2017-11-29T23:20:58.619Z,58.10
2017-11-29T23:23:27.537Z,59.20
2017-11-29T23:25:55.476Z,60.10
2017-11-29T23:28:23.783Z,60.90
2017-11-29T23:30:52.098Z,61.40
2017-11-29T23:33:20.438Z,62.10
2017-11-29T23:35:48.738Z,62.70
2017-11-29T23:38:17.051Z,62.70
2017-11-29T23:40:45.377Z,62.50
2017-11-29T23:43:13.724Z,63.30
2017-11-29T23:45:42.027Z,63.40
2017-11-29T23:48:10.636Z,63.70
2017-11-29T23:50:38.971Z,63.20
2017-11-29T23:53:07.383Z,62.80
2017-11-29T23:55:35.332Z,63.40
2017-11-29T23:58:04.472Z,63.00
